<?xml version="1.0" encoding="UTF-8" standalone="no" ?>
<gpx xmlns="http://www.topografix.com/GPX/1/1" xmlns:xsi="http://www.w3.org/2001/XMLSchema-instance" xsi:schemaLocation="http://www.topografix.com/GPX/1/1 http://www.topografix.com/GPX/1/1/gpx.xsd" version="1.1" creator="VisuGPX - https://www.visugpx.com">
  <metadata>
    <name>Marche Lucas 12km 2025</name>
  </metadata>
  <trk>
    <name><![CDATA[12 km Lucas 2025-20635664]]></name>
    <trkseg>
      <trkpt lat="45.61775" lon="4.42108">
        <ele>469</ele>
        <time>2025-02-03T10:04:22Z</time>
      </trkpt>
      <trkpt lat="45.61778" lon="4.42116">
        <ele>469</ele>
        <time>2025-02-03T10:04:30Z</time>
      </trkpt>
      <trkpt lat="45.61804" lon="4.42193">
        <ele>469</ele>
        <time>2025-02-03T10:05:50Z</time>
      </trkpt>
      <trkpt lat="45.61792" lon="4.42205">
        <ele>469</ele>
        <time>2025-02-03T10:06:10Z</time>
      </trkpt>
      <trkpt lat="45.61781" lon="4.4222">
        <ele>469</ele>
        <time>2025-02-03T10:06:30Z</time>
      </trkpt>
      <trkpt lat="45.61776" lon="4.42229">
        <ele>469</ele>
        <time>2025-02-03T10:06:41Z</time>
      </trkpt>
      <trkpt lat="45.61771" lon="4.42237">
        <ele>469</ele>
        <time>2025-02-03T10:06:51Z</time>
      </trkpt>
      <trkpt lat="45.61787" lon="4.42257">
        <ele>469</ele>
        <time>2025-02-03T10:07:19Z</time>
      </trkpt>
      <trkpt lat="45.61809" lon="4.42271">
        <ele>470</ele>
        <time>2025-02-03T10:07:51Z</time>
      </trkpt>
      <trkpt lat="45.61838" lon="4.42274">
        <ele>470</ele>
        <time>2025-02-03T10:08:30Z</time>
      </trkpt>
      <trkpt lat="45.61893" lon="4.42287">
        <ele>471</ele>
        <time>2025-02-03T10:09:45Z</time>
      </trkpt>
      <trkpt lat="45.61948" lon="4.42304">
        <ele>473</ele>
        <time>2025-02-03T10:11:00Z</time>
      </trkpt>
      <trkpt lat="45.61991" lon="4.42299">
        <ele>476</ele>
        <time>2025-02-03T10:11:57Z</time>
      </trkpt>
      <trkpt lat="45.62024" lon="4.42288">
        <ele>479</ele>
        <time>2025-02-03T10:12:42Z</time>
      </trkpt>
      <trkpt lat="45.62052" lon="4.42271">
        <ele>482</ele>
        <time>2025-02-03T10:13:23Z</time>
      </trkpt>
      <trkpt lat="45.62083" lon="4.42274">
        <ele>484</ele>
        <time>2025-02-03T10:14:04Z</time>
      </trkpt>
      <trkpt lat="45.62147" lon="4.423">
        <ele>483</ele>
        <time>2025-02-03T10:15:33Z</time>
      </trkpt>
      <trkpt lat="45.62182" lon="4.42295">
        <ele>484</ele>
        <time>2025-02-03T10:16:20Z</time>
      </trkpt>
      <trkpt lat="45.62234" lon="4.42268">
        <ele>487</ele>
        <time>2025-02-03T10:17:34Z</time>
      </trkpt>
      <trkpt lat="45.62306" lon="4.42265">
        <ele>488</ele>
        <time>2025-02-03T10:19:10Z</time>
      </trkpt>
      <trkpt lat="45.62351" lon="4.42269">
        <ele>489</ele>
        <time>2025-02-03T10:20:10Z</time>
      </trkpt>
      <trkpt lat="45.62372" lon="4.42277">
        <ele>489</ele>
        <time>2025-02-03T10:20:39Z</time>
      </trkpt>
      <trkpt lat="45.62385" lon="4.42289">
        <ele>489</ele>
        <time>2025-02-03T10:21:00Z</time>
      </trkpt>
      <trkpt lat="45.62397" lon="4.42308">
        <ele>488</ele>
        <time>2025-02-03T10:21:24Z</time>
      </trkpt>
      <trkpt lat="45.62417" lon="4.42335">
        <ele>488</ele>
        <time>2025-02-03T10:22:01Z</time>
      </trkpt>
      <trkpt lat="45.62478" lon="4.42412">
        <ele>489</ele>
        <time>2025-02-03T10:23:49Z</time>
      </trkpt>
      <trkpt lat="45.62483" lon="4.42421">
        <ele>489</ele>
        <time>2025-02-03T10:24:00Z</time>
      </trkpt>
      <trkpt lat="45.62487" lon="4.42432">
        <ele>489</ele>
        <time>2025-02-03T10:24:11Z</time>
      </trkpt>
      <trkpt lat="45.62502" lon="4.42492">
        <ele>487</ele>
        <time>2025-02-03T10:25:11Z</time>
      </trkpt>
      <trkpt lat="45.62513" lon="4.42526">
        <ele>486</ele>
        <time>2025-02-03T10:25:46Z</time>
      </trkpt>
      <trkpt lat="45.62515" lon="4.42544">
        <ele>485</ele>
        <time>2025-02-03T10:26:03Z</time>
      </trkpt>
      <trkpt lat="45.6252" lon="4.42614">
        <ele>483</ele>
        <time>2025-02-03T10:27:09Z</time>
      </trkpt>
      <trkpt lat="45.62762" lon="4.42614">
        <ele>525</ele>
        <time>2025-02-03T10:32:31Z</time>
      </trkpt>
      <trkpt lat="45.6276" lon="4.42602">
        <ele>525</ele>
        <time>2025-02-03T10:32:43Z</time>
      </trkpt>
      <trkpt lat="45.62762" lon="4.42569">
        <ele>525</ele>
        <time>2025-02-03T10:33:14Z</time>
      </trkpt>
      <trkpt lat="45.62774" lon="4.42521">
        <ele>525</ele>
        <time>2025-02-03T10:34:01Z</time>
      </trkpt>
      <trkpt lat="45.62794" lon="4.42469">
        <ele>526</ele>
        <time>2025-02-03T10:34:57Z</time>
      </trkpt>
      <trkpt lat="45.62805" lon="4.42414">
        <ele>526</ele>
        <time>2025-02-03T10:35:50Z</time>
      </trkpt>
      <trkpt lat="45.62813" lon="4.42378">
        <ele>527</ele>
        <time>2025-02-03T10:36:26Z</time>
      </trkpt>
      <trkpt lat="45.62824" lon="4.42354">
        <ele>528</ele>
        <time>2025-02-03T10:36:52Z</time>
      </trkpt>
      <trkpt lat="45.62828" lon="4.4234">
        <ele>528</ele>
        <time>2025-02-03T10:37:06Z</time>
      </trkpt>
      <trkpt lat="45.62829" lon="4.42343">
        <ele>528</ele>
        <time>2025-02-03T10:37:09Z</time>
      </trkpt>
      <trkpt lat="45.62828" lon="4.4234">
        <ele>528</ele>
        <time>2025-02-03T10:37:13Z</time>
      </trkpt>
      <trkpt lat="45.62834" lon="4.42327">
        <ele>527</ele>
        <time>2025-02-03T10:37:27Z</time>
      </trkpt>
      <trkpt lat="45.62868" lon="4.42287">
        <ele>524</ele>
        <time>2025-02-03T10:38:26Z</time>
      </trkpt>
      <trkpt lat="45.62908" lon="4.42259">
        <ele>519</ele>
        <time>2025-02-03T10:39:25Z</time>
      </trkpt>
      <trkpt lat="45.62935" lon="4.42247">
        <ele>517</ele>
        <time>2025-02-03T10:40:03Z</time>
      </trkpt>
      <trkpt lat="45.6298" lon="4.4223">
        <ele>515</ele>
        <time>2025-02-03T10:41:05Z</time>
      </trkpt>
      <trkpt lat="45.62991" lon="4.42235">
        <ele>514</ele>
        <time>2025-02-03T10:41:21Z</time>
      </trkpt>
      <trkpt lat="45.63008" lon="4.42239">
        <ele>514</ele>
        <time>2025-02-03T10:41:44Z</time>
      </trkpt>
      <trkpt lat="45.63088" lon="4.42243">
        <ele>518</ele>
        <time>2025-02-03T10:43:30Z</time>
      </trkpt>
      <trkpt lat="45.63095" lon="4.42248">
        <ele>519</ele>
        <time>2025-02-03T10:43:41Z</time>
      </trkpt>
      <trkpt lat="45.63119" lon="4.42112">
        <ele>531</ele>
        <time>2025-02-03T10:45:52Z</time>
      </trkpt>
      <trkpt lat="45.63119" lon="4.42112">
        <ele>531</ele>
        <time>2025-02-03T10:45:52Z</time>
      </trkpt>
      <trkpt lat="45.6313" lon="4.42122">
        <ele>531</ele>
        <time>2025-02-03T10:46:09Z</time>
      </trkpt>
      <trkpt lat="45.63244" lon="4.42238">
        <ele>529</ele>
        <time>2025-02-03T10:49:16Z</time>
      </trkpt>
      <trkpt lat="45.63256" lon="4.42251">
        <ele>529</ele>
        <time>2025-02-03T10:49:36Z</time>
      </trkpt>
      <trkpt lat="45.63275" lon="4.42275">
        <ele>530</ele>
        <time>2025-02-03T10:50:10Z</time>
      </trkpt>
      <trkpt lat="45.63303" lon="4.42294">
        <ele>532</ele>
        <time>2025-02-03T10:50:51Z</time>
      </trkpt>
      <trkpt lat="45.63322" lon="4.42305">
        <ele>533</ele>
        <time>2025-02-03T10:51:18Z</time>
      </trkpt>
      <trkpt lat="45.63336" lon="4.42324">
        <ele>534</ele>
        <time>2025-02-03T10:51:44Z</time>
      </trkpt>
      <trkpt lat="45.63337" lon="4.42335">
        <ele>533</ele>
        <time>2025-02-03T10:51:55Z</time>
      </trkpt>
      <trkpt lat="45.6333" lon="4.42344">
        <ele>533</ele>
        <time>2025-02-03T10:52:07Z</time>
      </trkpt>
      <trkpt lat="45.63316" lon="4.42537">
        <ele>538</ele>
        <time>2025-02-03T10:55:08Z</time>
      </trkpt>
      <trkpt lat="45.63411" lon="4.42636">
        <ele>545</ele>
        <time>2025-02-03T10:57:45Z</time>
      </trkpt>
      <trkpt lat="45.63488" lon="4.42645">
        <ele>550</ele>
        <time>2025-02-03T10:59:28Z</time>
      </trkpt>
      <trkpt lat="45.63495" lon="4.42648">
        <ele>550</ele>
        <time>2025-02-03T10:59:38Z</time>
      </trkpt>
      <trkpt lat="45.63495" lon="4.42669">
        <ele>548</ele>
        <time>2025-02-03T10:59:57Z</time>
      </trkpt>
      <trkpt lat="45.63454" lon="4.4276">
        <ele>550</ele>
        <time>2025-02-03T11:01:38Z</time>
      </trkpt>
      <trkpt lat="45.63443" lon="4.42797">
        <ele>550</ele>
        <time>2025-02-03T11:02:16Z</time>
      </trkpt>
      <trkpt lat="45.63451" lon="4.42834">
        <ele>553</ele>
        <time>2025-02-03T11:02:52Z</time>
      </trkpt>
      <trkpt lat="45.63477" lon="4.42934">
        <ele>553</ele>
        <time>2025-02-03T11:04:32Z</time>
      </trkpt>
      <trkpt lat="45.63476" lon="4.42934">
        <ele>553</ele>
        <time>2025-02-03T11:04:33Z</time>
      </trkpt>
      <trkpt lat="45.63584" lon="4.42976">
        <ele>562</ele>
        <time>2025-02-03T11:07:02Z</time>
      </trkpt>
      <trkpt lat="45.63746" lon="4.43008">
        <ele>568</ele>
        <time>2025-02-03T11:10:41Z</time>
      </trkpt>
      <trkpt lat="45.63737" lon="4.43017">
        <ele>568</ele>
        <time>2025-02-03T11:10:55Z</time>
      </trkpt>
      <trkpt lat="45.63722" lon="4.43023">
        <ele>568</ele>
        <time>2025-02-03T11:11:16Z</time>
      </trkpt>
      <trkpt lat="45.63707" lon="4.43036">
        <ele>569</ele>
        <time>2025-02-03T11:11:39Z</time>
      </trkpt>
      <trkpt lat="45.63699" lon="4.43041">
        <ele>569</ele>
        <time>2025-02-03T11:11:51Z</time>
      </trkpt>
      <trkpt lat="45.63687" lon="4.43058">
        <ele>570</ele>
        <time>2025-02-03T11:12:14Z</time>
      </trkpt>
      <trkpt lat="45.6368" lon="4.43077">
        <ele>572</ele>
        <time>2025-02-03T11:12:34Z</time>
      </trkpt>
      <trkpt lat="45.63674" lon="4.43103">
        <ele>573</ele>
        <time>2025-02-03T11:12:59Z</time>
      </trkpt>
      <trkpt lat="45.63653" lon="4.43177">
        <ele>573</ele>
        <time>2025-02-03T11:14:14Z</time>
      </trkpt>
      <trkpt lat="45.63648" lon="4.43198">
        <ele>572</ele>
        <time>2025-02-03T11:14:34Z</time>
      </trkpt>
      <trkpt lat="45.63647" lon="4.43221">
        <ele>571</ele>
        <time>2025-02-03T11:14:56Z</time>
      </trkpt>
      <trkpt lat="45.6365" lon="4.43248">
        <ele>571</ele>
        <time>2025-02-03T11:15:21Z</time>
      </trkpt>
      <trkpt lat="45.63657" lon="4.43269">
        <ele>571</ele>
        <time>2025-02-03T11:15:43Z</time>
      </trkpt>
      <trkpt lat="45.63666" lon="4.43279">
        <ele>571</ele>
        <time>2025-02-03T11:15:58Z</time>
      </trkpt>
      <trkpt lat="45.63667" lon="4.43278">
        <ele>571</ele>
        <time>2025-02-03T11:16:00Z</time>
      </trkpt>
      <trkpt lat="45.63691" lon="4.43254">
        <ele>575</ele>
        <time>2025-02-03T11:16:39Z</time>
      </trkpt>
      <trkpt lat="45.63718" lon="4.43232">
        <ele>578</ele>
        <time>2025-02-03T11:17:21Z</time>
      </trkpt>
      <trkpt lat="45.63733" lon="4.43225">
        <ele>579</ele>
        <time>2025-02-03T11:17:42Z</time>
      </trkpt>
      <trkpt lat="45.63769" lon="4.43211">
        <ele>581</ele>
        <time>2025-02-03T11:18:31Z</time>
      </trkpt>
      <trkpt lat="45.63785" lon="4.43208">
        <ele>582</ele>
        <time>2025-02-03T11:18:53Z</time>
      </trkpt>
      <trkpt lat="45.63888" lon="4.43198">
        <ele>585</ele>
        <time>2025-02-03T11:21:11Z</time>
      </trkpt>
      <trkpt lat="45.63951" lon="4.43182">
        <ele>587</ele>
        <time>2025-02-03T11:22:36Z</time>
      </trkpt>
      <trkpt lat="45.6397" lon="4.43179">
        <ele>588</ele>
        <time>2025-02-03T11:23:02Z</time>
      </trkpt>
      <trkpt lat="45.63984" lon="4.43179">
        <ele>589</ele>
        <time>2025-02-03T11:23:20Z</time>
      </trkpt>
      <trkpt lat="45.63994" lon="4.43185">
        <ele>590</ele>
        <time>2025-02-03T11:23:35Z</time>
      </trkpt>
      <trkpt lat="45.64027" lon="4.43222">
        <ele>591</ele>
        <time>2025-02-03T11:24:31Z</time>
      </trkpt>
      <trkpt lat="45.64038" lon="4.43231">
        <ele>592</ele>
        <time>2025-02-03T11:24:48Z</time>
      </trkpt>
      <trkpt lat="45.64067" lon="4.43248">
        <ele>594</ele>
        <time>2025-02-03T11:25:29Z</time>
      </trkpt>
      <trkpt lat="45.64084" lon="4.43266">
        <ele>594</ele>
        <time>2025-02-03T11:25:58Z</time>
      </trkpt>
      <trkpt lat="45.64115" lon="4.43308">
        <ele>594</ele>
        <time>2025-02-03T11:26:55Z</time>
      </trkpt>
      <trkpt lat="45.64124" lon="4.43332">
        <ele>594</ele>
        <time>2025-02-03T11:27:20Z</time>
      </trkpt>
      <trkpt lat="45.64129" lon="4.43364">
        <ele>594</ele>
        <time>2025-02-03T11:27:51Z</time>
      </trkpt>
      <trkpt lat="45.64148" lon="4.43393">
        <ele>595</ele>
        <time>2025-02-03T11:28:28Z</time>
      </trkpt>
      <trkpt lat="45.64156" lon="4.43406">
        <ele>596</ele>
        <time>2025-02-03T11:28:44Z</time>
      </trkpt>
      <trkpt lat="45.64158" lon="4.4341">
        <ele>596</ele>
        <time>2025-02-03T11:28:48Z</time>
      </trkpt>
      <trkpt lat="45.6417" lon="4.434">
        <ele>596</ele>
        <time>2025-02-03T11:29:07Z</time>
      </trkpt>
      <trkpt lat="45.6418" lon="4.4338">
        <ele>597</ele>
        <time>2025-02-03T11:29:30Z</time>
      </trkpt>
      <trkpt lat="45.64187" lon="4.4335">
        <ele>597</ele>
        <time>2025-02-03T11:29:59Z</time>
      </trkpt>
      <trkpt lat="45.64192" lon="4.43318">
        <ele>599</ele>
        <time>2025-02-03T11:30:30Z</time>
      </trkpt>
      <trkpt lat="45.64195" lon="4.43302">
        <ele>600</ele>
        <time>2025-02-03T11:30:45Z</time>
      </trkpt>
      <trkpt lat="45.64209" lon="4.43269">
        <ele>603</ele>
        <time>2025-02-03T11:31:22Z</time>
      </trkpt>
      <trkpt lat="45.64225" lon="4.43245">
        <ele>605</ele>
        <time>2025-02-03T11:31:52Z</time>
      </trkpt>
      <trkpt lat="45.64252" lon="4.4321">
        <ele>611</ele>
        <time>2025-02-03T11:32:41Z</time>
      </trkpt>
      <trkpt lat="45.64257" lon="4.43201">
        <ele>612</ele>
        <time>2025-02-03T11:32:52Z</time>
      </trkpt>
      <trkpt lat="45.64265" lon="4.43164">
        <ele>616</ele>
        <time>2025-02-03T11:33:28Z</time>
      </trkpt>
      <trkpt lat="45.64278" lon="4.43109">
        <ele>625</ele>
        <time>2025-02-03T11:34:22Z</time>
      </trkpt>
      <trkpt lat="45.64296" lon="4.43046">
        <ele>633</ele>
        <time>2025-02-03T11:35:26Z</time>
      </trkpt>
      <trkpt lat="45.64333" lon="4.42933">
        <ele>646</ele>
        <time>2025-02-03T11:37:22Z</time>
      </trkpt>
      <trkpt lat="45.64367" lon="4.42831">
        <ele>654</ele>
        <time>2025-02-03T11:39:07Z</time>
      </trkpt>
      <trkpt lat="45.64371" lon="4.42824">
        <ele>655</ele>
        <time>2025-02-03T11:39:16Z</time>
      </trkpt>
      <trkpt lat="45.64378" lon="4.42819">
        <ele>656</ele>
        <time>2025-02-03T11:39:26Z</time>
      </trkpt>
      <trkpt lat="45.64405" lon="4.42817">
        <ele>657</ele>
        <time>2025-02-03T11:40:02Z</time>
      </trkpt>
      <trkpt lat="45.64417" lon="4.42815">
        <ele>658</ele>
        <time>2025-02-03T11:40:19Z</time>
      </trkpt>
      <trkpt lat="45.64433" lon="4.42808">
        <ele>660</ele>
        <time>2025-02-03T11:40:41Z</time>
      </trkpt>
      <trkpt lat="45.64449" lon="4.42798">
        <ele>663</ele>
        <time>2025-02-03T11:41:04Z</time>
      </trkpt>
      <trkpt lat="45.64465" lon="4.42791">
        <ele>665</ele>
        <time>2025-02-03T11:41:26Z</time>
      </trkpt>
      <trkpt lat="45.64449" lon="4.42798">
        <ele>663</ele>
        <time>2025-02-03T11:41:49Z</time>
      </trkpt>
      <trkpt lat="45.64441" lon="4.42797">
        <ele>662</ele>
        <time>2025-02-03T11:42:00Z</time>
      </trkpt>
      <trkpt lat="45.64431" lon="4.42791">
        <ele>662</ele>
        <time>2025-02-03T11:42:14Z</time>
      </trkpt>
      <trkpt lat="45.64425" lon="4.42783">
        <ele>663</ele>
        <time>2025-02-03T11:42:25Z</time>
      </trkpt>
      <trkpt lat="45.64422" lon="4.42776">
        <ele>663</ele>
        <time>2025-02-03T11:42:33Z</time>
      </trkpt>
      <trkpt lat="45.64421" lon="4.42767">
        <ele>664</ele>
        <time>2025-02-03T11:42:41Z</time>
      </trkpt>
      <trkpt lat="45.64422" lon="4.4276">
        <ele>665</ele>
        <time>2025-02-03T11:42:48Z</time>
      </trkpt>
      <trkpt lat="45.64427" lon="4.42749">
        <ele>667</ele>
        <time>2025-02-03T11:43:00Z</time>
      </trkpt>
      <trkpt lat="45.64449" lon="4.42712">
        <ele>671</ele>
        <time>2025-02-03T11:43:45Z</time>
      </trkpt>
      <trkpt lat="45.64463" lon="4.42693">
        <ele>675</ele>
        <time>2025-02-03T11:44:11Z</time>
      </trkpt>
      <trkpt lat="45.64467" lon="4.42683">
        <ele>677</ele>
        <time>2025-02-03T11:44:22Z</time>
      </trkpt>
      <trkpt lat="45.64464" lon="4.4268">
        <ele>676</ele>
        <time>2025-02-03T11:44:27Z</time>
      </trkpt>
      <trkpt lat="45.64492" lon="4.42535">
        <ele>691</ele>
        <time>2025-02-03T11:46:47Z</time>
      </trkpt>
      <trkpt lat="45.64505" lon="4.42236">
        <ele>703</ele>
        <time>2025-02-03T11:51:27Z</time>
      </trkpt>
      <trkpt lat="45.64495" lon="4.42206">
        <ele>702</ele>
        <time>2025-02-03T11:51:58Z</time>
      </trkpt>
      <trkpt lat="45.64476" lon="4.42178">
        <ele>699</ele>
        <time>2025-02-03T11:52:34Z</time>
      </trkpt>
      <trkpt lat="45.64481" lon="4.42164">
        <ele>699</ele>
        <time>2025-02-03T11:52:49Z</time>
      </trkpt>
      <trkpt lat="45.6449" lon="4.42147">
        <ele>700</ele>
        <time>2025-02-03T11:53:08Z</time>
      </trkpt>
      <trkpt lat="45.64495" lon="4.42103">
        <ele>699</ele>
        <time>2025-02-03T11:53:50Z</time>
      </trkpt>
      <trkpt lat="45.64499" lon="4.42069">
        <ele>698</ele>
        <time>2025-02-03T11:54:22Z</time>
      </trkpt>
      <trkpt lat="45.64487" lon="4.42033">
        <ele>694</ele>
        <time>2025-02-03T11:54:59Z</time>
      </trkpt>
      <trkpt lat="45.64457" lon="4.4197">
        <ele>688</ele>
        <time>2025-02-03T11:56:11Z</time>
      </trkpt>
      <trkpt lat="45.64445" lon="4.41934">
        <ele>683</ele>
        <time>2025-02-03T11:56:48Z</time>
      </trkpt>
      <trkpt lat="45.64434" lon="4.4191">
        <ele>681</ele>
        <time>2025-02-03T11:57:15Z</time>
      </trkpt>
      <trkpt lat="45.64421" lon="4.41879">
        <ele>678</ele>
        <time>2025-02-03T11:57:48Z</time>
      </trkpt>
      <trkpt lat="45.6441" lon="4.41855">
        <ele>676</ele>
        <time>2025-02-03T11:58:15Z</time>
      </trkpt>
      <trkpt lat="45.64395" lon="4.41846">
        <ele>674</ele>
        <time>2025-02-03T11:58:37Z</time>
      </trkpt>
      <trkpt lat="45.64358" lon="4.41828">
        <ele>670</ele>
        <time>2025-02-03T11:59:29Z</time>
      </trkpt>
      <trkpt lat="45.64344" lon="4.41818">
        <ele>668</ele>
        <time>2025-02-03T11:59:50Z</time>
      </trkpt>
      <trkpt lat="45.64351" lon="4.41811">
        <ele>668</ele>
        <time>2025-02-03T12:00:01Z</time>
      </trkpt>
      <trkpt lat="45.64344" lon="4.41818">
        <ele>668</ele>
        <time>2025-02-03T12:00:13Z</time>
      </trkpt>
      <trkpt lat="45.64293" lon="4.41772">
        <ele>663</ele>
        <time>2025-02-03T12:01:33Z</time>
      </trkpt>
      <trkpt lat="45.64255" lon="4.41747">
        <ele>662</ele>
        <time>2025-02-03T12:02:29Z</time>
      </trkpt>
      <trkpt lat="45.64242" lon="4.41734">
        <ele>660</ele>
        <time>2025-02-03T12:02:50Z</time>
      </trkpt>
      <trkpt lat="45.64237" lon="4.41715">
        <ele>658</ele>
        <time>2025-02-03T12:03:09Z</time>
      </trkpt>
      <trkpt lat="45.64221" lon="4.41633">
        <ele>651</ele>
        <time>2025-02-03T12:04:28Z</time>
      </trkpt>
      <trkpt lat="45.64204" lon="4.41577">
        <ele>647</ele>
        <time>2025-02-03T12:05:25Z</time>
      </trkpt>
      <trkpt lat="45.64185" lon="4.41557">
        <ele>646</ele>
        <time>2025-02-03T12:05:57Z</time>
      </trkpt>
      <trkpt lat="45.64174" lon="4.41536">
        <ele>645</ele>
        <time>2025-02-03T12:06:21Z</time>
      </trkpt>
      <trkpt lat="45.64171" lon="4.41521">
        <ele>645</ele>
        <time>2025-02-03T12:06:36Z</time>
      </trkpt>
      <trkpt lat="45.6417" lon="4.41515">
        <ele>644</ele>
        <time>2025-02-03T12:06:42Z</time>
      </trkpt>
      <trkpt lat="45.64163" lon="4.41512">
        <ele>644</ele>
        <time>2025-02-03T12:06:51Z</time>
      </trkpt>
      <trkpt lat="45.64155" lon="4.41508">
        <ele>643</ele>
        <time>2025-02-03T12:07:03Z</time>
      </trkpt>
      <trkpt lat="45.64125" lon="4.41501">
        <ele>639</ele>
        <time>2025-02-03T12:07:43Z</time>
      </trkpt>
      <trkpt lat="45.64088" lon="4.4149">
        <ele>634</ele>
        <time>2025-02-03T12:08:34Z</time>
      </trkpt>
      <trkpt lat="45.64038" lon="4.41471">
        <ele>626</ele>
        <time>2025-02-03T12:09:43Z</time>
      </trkpt>
      <trkpt lat="45.63946" lon="4.41434">
        <ele>614</ele>
        <time>2025-02-03T12:11:50Z</time>
      </trkpt>
      <trkpt lat="45.63946" lon="4.41434">
        <ele>614</ele>
        <time>2025-02-03T12:11:50Z</time>
      </trkpt>
      <trkpt lat="45.63946" lon="4.41434">
        <ele>614</ele>
        <time>2025-02-03T12:11:50Z</time>
      </trkpt>
      <trkpt lat="45.63974" lon="4.41412">
        <ele>614</ele>
        <time>2025-02-03T12:12:33Z</time>
      </trkpt>
      <trkpt lat="45.64016" lon="4.4137">
        <ele>612</ele>
        <time>2025-02-03T12:13:41Z</time>
      </trkpt>
      <trkpt lat="45.64034" lon="4.41334">
        <ele>611</ele>
        <time>2025-02-03T12:14:23Z</time>
      </trkpt>
      <trkpt lat="45.64049" lon="4.41271">
        <ele>606</ele>
        <time>2025-02-03T12:15:25Z</time>
      </trkpt>
      <trkpt lat="45.64055" lon="4.41256">
        <ele>605</ele>
        <time>2025-02-03T12:15:41Z</time>
      </trkpt>
      <trkpt lat="45.64049" lon="4.41271">
        <ele>606</ele>
        <time>2025-02-03T12:15:57Z</time>
      </trkpt>
      <trkpt lat="45.64044" lon="4.41263">
        <ele>604</ele>
        <time>2025-02-03T12:16:07Z</time>
      </trkpt>
      <trkpt lat="45.64045" lon="4.41243">
        <ele>602</ele>
        <time>2025-02-03T12:16:26Z</time>
      </trkpt>
      <trkpt lat="45.64049" lon="4.41197">
        <ele>596</ele>
        <time>2025-02-03T12:17:09Z</time>
      </trkpt>
      <trkpt lat="45.64062" lon="4.41145">
        <ele>590</ele>
        <time>2025-02-03T12:18:00Z</time>
      </trkpt>
      <trkpt lat="45.64066" lon="4.41125">
        <ele>587</ele>
        <time>2025-02-03T12:18:20Z</time>
      </trkpt>
      <trkpt lat="45.6399" lon="4.41088">
        <ele>570</ele>
        <time>2025-02-03T12:20:07Z</time>
      </trkpt>
      <trkpt lat="45.63994" lon="4.41078">
        <ele>569</ele>
        <time>2025-02-03T12:20:18Z</time>
      </trkpt>
      <trkpt lat="45.64045" lon="4.41052">
        <ele>573</ele>
        <time>2025-02-03T12:21:30Z</time>
      </trkpt>
      <trkpt lat="45.64047" lon="4.41048">
        <ele>572</ele>
        <time>2025-02-03T12:21:35Z</time>
      </trkpt>
      <trkpt lat="45.64051" lon="4.4104">
        <ele>572</ele>
        <time>2025-02-03T12:21:44Z</time>
      </trkpt>
      <trkpt lat="45.64052" lon="4.41027">
        <ele>571</ele>
        <time>2025-02-03T12:21:56Z</time>
      </trkpt>
      <trkpt lat="45.64015" lon="4.41006">
        <ele>565</ele>
        <time>2025-02-03T12:22:49Z</time>
      </trkpt>
      <trkpt lat="45.6398" lon="4.4096">
        <ele>564</ele>
        <time>2025-02-03T12:23:52Z</time>
      </trkpt>
      <trkpt lat="45.63929" lon="4.4093">
        <ele>561</ele>
        <time>2025-02-03T12:25:06Z</time>
      </trkpt>
      <trkpt lat="45.63918" lon="4.40901">
        <ele>563</ele>
        <time>2025-02-03T12:25:37Z</time>
      </trkpt>
      <trkpt lat="45.63902" lon="4.40808">
        <ele>572</ele>
        <time>2025-02-03T12:27:06Z</time>
      </trkpt>
      <trkpt lat="45.63902" lon="4.40806">
        <ele>572</ele>
        <time>2025-02-03T12:27:08Z</time>
      </trkpt>
      <trkpt lat="45.63904" lon="4.40741">
        <ele>577</ele>
        <time>2025-02-03T12:28:09Z</time>
      </trkpt>
      <trkpt lat="45.63903" lon="4.40727">
        <ele>578</ele>
        <time>2025-02-03T12:28:22Z</time>
      </trkpt>
      <trkpt lat="45.639" lon="4.40717">
        <ele>578</ele>
        <time>2025-02-03T12:28:32Z</time>
      </trkpt>
      <trkpt lat="45.63896" lon="4.40709">
        <ele>578</ele>
        <time>2025-02-03T12:28:41Z</time>
      </trkpt>
      <trkpt lat="45.63879" lon="4.40689">
        <ele>578</ele>
        <time>2025-02-03T12:29:11Z</time>
      </trkpt>
      <trkpt lat="45.63868" lon="4.40673">
        <ele>578</ele>
        <time>2025-02-03T12:29:32Z</time>
      </trkpt>
      <trkpt lat="45.63865" lon="4.40665">
        <ele>579</ele>
        <time>2025-02-03T12:29:40Z</time>
      </trkpt>
      <trkpt lat="45.63865" lon="4.40659">
        <ele>579</ele>
        <time>2025-02-03T12:29:46Z</time>
      </trkpt>
      <trkpt lat="45.63866" lon="4.40651">
        <ele>579</ele>
        <time>2025-02-03T12:29:53Z</time>
      </trkpt>
      <trkpt lat="45.63871" lon="4.40641">
        <ele>580</ele>
        <time>2025-02-03T12:30:05Z</time>
      </trkpt>
      <trkpt lat="45.63843" lon="4.40615">
        <ele>579</ele>
        <time>2025-02-03T12:30:49Z</time>
      </trkpt>
      <trkpt lat="45.63826" lon="4.40591">
        <ele>577</ele>
        <time>2025-02-03T12:31:21Z</time>
      </trkpt>
      <trkpt lat="45.63818" lon="4.40572">
        <ele>576</ele>
        <time>2025-02-03T12:31:42Z</time>
      </trkpt>
      <trkpt lat="45.63814" lon="4.40539">
        <ele>575</ele>
        <time>2025-02-03T12:32:13Z</time>
      </trkpt>
      <trkpt lat="45.63809" lon="4.40513">
        <ele>574</ele>
        <time>2025-02-03T12:32:38Z</time>
      </trkpt>
      <trkpt lat="45.63797" lon="4.40495">
        <ele>572</ele>
        <time>2025-02-03T12:33:01Z</time>
      </trkpt>
      <trkpt lat="45.63785" lon="4.40487">
        <ele>571</ele>
        <time>2025-02-03T12:33:19Z</time>
      </trkpt>
      <trkpt lat="45.63778" lon="4.40479">
        <ele>570</ele>
        <time>2025-02-03T12:33:31Z</time>
      </trkpt>
      <trkpt lat="45.63778" lon="4.40465">
        <ele>571</ele>
        <time>2025-02-03T12:33:44Z</time>
      </trkpt>
      <trkpt lat="45.63794" lon="4.40382">
        <ele>574</ele>
        <time>2025-02-03T12:35:04Z</time>
      </trkpt>
      <trkpt lat="45.63798" lon="4.40352">
        <ele>574</ele>
        <time>2025-02-03T12:35:33Z</time>
      </trkpt>
      <trkpt lat="45.63803" lon="4.40333">
        <ele>574</ele>
        <time>2025-02-03T12:35:52Z</time>
      </trkpt>
      <trkpt lat="45.63869" lon="4.4021">
        <ele>579</ele>
        <time>2025-02-03T12:38:17Z</time>
      </trkpt>
      <trkpt lat="45.63876" lon="4.4019">
        <ele>579</ele>
        <time>2025-02-03T12:38:37Z</time>
      </trkpt>
      <trkpt lat="45.63879" lon="4.40171">
        <ele>579</ele>
        <time>2025-02-03T12:38:56Z</time>
      </trkpt>
      <trkpt lat="45.63877" lon="4.40016">
        <ele>592</ele>
        <time>2025-02-03T12:41:20Z</time>
      </trkpt>
      <trkpt lat="45.63886" lon="4.39996">
        <ele>593</ele>
        <time>2025-02-03T12:41:42Z</time>
      </trkpt>
      <trkpt lat="45.63899" lon="4.39972">
        <ele>595</ele>
        <time>2025-02-03T12:42:11Z</time>
      </trkpt>
      <trkpt lat="45.63901" lon="4.3996">
        <ele>595</ele>
        <time>2025-02-03T12:42:22Z</time>
      </trkpt>
      <trkpt lat="45.63905" lon="4.39949">
        <ele>596</ele>
        <time>2025-02-03T12:42:34Z</time>
      </trkpt>
      <trkpt lat="45.6391" lon="4.39937">
        <ele>596</ele>
        <time>2025-02-03T12:42:47Z</time>
      </trkpt>
      <trkpt lat="45.63924" lon="4.39892">
        <ele>601</ele>
        <time>2025-02-03T12:43:33Z</time>
      </trkpt>
      <trkpt lat="45.63924" lon="4.39878">
        <ele>602</ele>
        <time>2025-02-03T12:43:46Z</time>
      </trkpt>
      <trkpt lat="45.63917" lon="4.39861">
        <ele>604</ele>
        <time>2025-02-03T12:44:04Z</time>
      </trkpt>
      <trkpt lat="45.63886" lon="4.39815">
        <ele>606</ele>
        <time>2025-02-03T12:45:04Z</time>
      </trkpt>
      <trkpt lat="45.63858" lon="4.3968">
        <ele>613</ele>
        <time>2025-02-03T12:47:15Z</time>
      </trkpt>
      <trkpt lat="45.63847" lon="4.39634">
        <ele>615</ele>
        <time>2025-02-03T12:48:01Z</time>
      </trkpt>
      <trkpt lat="45.63835" lon="4.39602">
        <ele>617</ele>
        <time>2025-02-03T12:48:34Z</time>
      </trkpt>
      <trkpt lat="45.63831" lon="4.39566">
        <ele>620</ele>
        <time>2025-02-03T12:49:09Z</time>
      </trkpt>
      <trkpt lat="45.63825" lon="4.39549">
        <ele>621</ele>
        <time>2025-02-03T12:49:26Z</time>
      </trkpt>
      <trkpt lat="45.63828" lon="4.39547">
        <ele>622</ele>
        <time>2025-02-03T12:49:31Z</time>
      </trkpt>
      <trkpt lat="45.63825" lon="4.39549">
        <ele>621</ele>
        <time>2025-02-03T12:49:35Z</time>
      </trkpt>
      <trkpt lat="45.63809" lon="4.39556">
        <ele>621</ele>
        <time>2025-02-03T12:49:57Z</time>
      </trkpt>
      <trkpt lat="45.63812" lon="4.39485">
        <ele>626</ele>
        <time>2025-02-03T12:51:04Z</time>
      </trkpt>
      <trkpt lat="45.63813" lon="4.3947">
        <ele>626</ele>
        <time>2025-02-03T12:51:18Z</time>
      </trkpt>
      <trkpt lat="45.63793" lon="4.39483">
        <ele>626</ele>
        <time>2025-02-03T12:51:47Z</time>
      </trkpt>
      <trkpt lat="45.63647" lon="4.39553">
        <ele>625</ele>
        <time>2025-02-03T12:55:13Z</time>
      </trkpt>
      <trkpt lat="45.63645" lon="4.39557">
        <ele>625</ele>
        <time>2025-02-03T12:55:17Z</time>
      </trkpt>
      <trkpt lat="45.63641" lon="4.39571">
        <ele>624</ele>
        <time>2025-02-03T12:55:31Z</time>
      </trkpt>
      <trkpt lat="45.63634" lon="4.3957">
        <ele>624</ele>
        <time>2025-02-03T12:55:41Z</time>
      </trkpt>
      <trkpt lat="45.63622" lon="4.39575">
        <ele>624</ele>
        <time>2025-02-03T12:55:57Z</time>
      </trkpt>
      <trkpt lat="45.63591" lon="4.39596">
        <ele>622</ele>
        <time>2025-02-03T12:56:43Z</time>
      </trkpt>
      <trkpt lat="45.63572" lon="4.39604">
        <ele>621</ele>
        <time>2025-02-03T12:57:10Z</time>
      </trkpt>
      <trkpt lat="45.63539" lon="4.39613">
        <ele>619</ele>
        <time>2025-02-03T12:57:54Z</time>
      </trkpt>
      <trkpt lat="45.63508" lon="4.39625">
        <ele>618</ele>
        <time>2025-02-03T12:58:37Z</time>
      </trkpt>
      <trkpt lat="45.63453" lon="4.39649">
        <ele>613</ele>
        <time>2025-02-03T12:59:54Z</time>
      </trkpt>
      <trkpt lat="45.63446" lon="4.39652">
        <ele>613</ele>
        <time>2025-02-03T13:00:04Z</time>
      </trkpt>
      <trkpt lat="45.63382" lon="4.39663">
        <ele>607</ele>
        <time>2025-02-03T13:01:30Z</time>
      </trkpt>
      <trkpt lat="45.63362" lon="4.39667">
        <ele>605</ele>
        <time>2025-02-03T13:01:57Z</time>
      </trkpt>
      <trkpt lat="45.63333" lon="4.39669">
        <ele>602</ele>
        <time>2025-02-03T13:02:36Z</time>
      </trkpt>
      <trkpt lat="45.63299" lon="4.39676">
        <ele>599</ele>
        <time>2025-02-03T13:03:21Z</time>
      </trkpt>
      <trkpt lat="45.63292" lon="4.39677">
        <ele>599</ele>
        <time>2025-02-03T13:03:31Z</time>
      </trkpt>
      <trkpt lat="45.63245" lon="4.39703">
        <ele>594</ele>
        <time>2025-02-03T13:04:38Z</time>
      </trkpt>
      <trkpt lat="45.63234" lon="4.39711">
        <ele>593</ele>
        <time>2025-02-03T13:04:54Z</time>
      </trkpt>
      <trkpt lat="45.63204" lon="4.39712">
        <ele>589</ele>
        <time>2025-02-03T13:05:35Z</time>
      </trkpt>
      <trkpt lat="45.63168" lon="4.39715">
        <ele>585</ele>
        <time>2025-02-03T13:06:23Z</time>
      </trkpt>
      <trkpt lat="45.63151" lon="4.39723">
        <ele>583</ele>
        <time>2025-02-03T13:06:47Z</time>
      </trkpt>
      <trkpt lat="45.6314" lon="4.39748">
        <ele>582</ele>
        <time>2025-02-03T13:07:14Z</time>
      </trkpt>
      <trkpt lat="45.63125" lon="4.39791">
        <ele>578</ele>
        <time>2025-02-03T13:07:59Z</time>
      </trkpt>
      <trkpt lat="45.63115" lon="4.39806">
        <ele>577</ele>
        <time>2025-02-03T13:08:18Z</time>
      </trkpt>
      <trkpt lat="45.6311" lon="4.39813">
        <ele>576</ele>
        <time>2025-02-03T13:08:28Z</time>
      </trkpt>
      <trkpt lat="45.62966" lon="4.39988">
        <ele>560</ele>
        <time>2025-02-03T13:12:40Z</time>
      </trkpt>
      <trkpt lat="45.62934" lon="4.40023">
        <ele>557</ele>
        <time>2025-02-03T13:13:34Z</time>
      </trkpt>
      <trkpt lat="45.62886" lon="4.40079">
        <ele>553</ele>
        <time>2025-02-03T13:14:56Z</time>
      </trkpt>
      <trkpt lat="45.62857" lon="4.401">
        <ele>551</ele>
        <time>2025-02-03T13:15:40Z</time>
      </trkpt>
      <trkpt lat="45.62825" lon="4.40116">
        <ele>549</ele>
        <time>2025-02-03T13:16:25Z</time>
      </trkpt>
      <trkpt lat="45.62819" lon="4.40114">
        <ele>549</ele>
        <time>2025-02-03T13:16:33Z</time>
      </trkpt>
      <trkpt lat="45.62818" lon="4.40114">
        <ele>549</ele>
        <time>2025-02-03T13:16:34Z</time>
      </trkpt>
      <trkpt lat="45.62796" lon="4.40174">
        <ele>546</ele>
        <time>2025-02-03T13:17:38Z</time>
      </trkpt>
      <trkpt lat="45.62742" lon="4.40333">
        <ele>541</ele>
        <time>2025-02-03T13:20:23Z</time>
      </trkpt>
      <trkpt lat="45.62717" lon="4.40444">
        <ele>536</ele>
        <time>2025-02-03T13:22:11Z</time>
      </trkpt>
      <trkpt lat="45.62701" lon="4.40527">
        <ele>534</ele>
        <time>2025-02-03T13:23:32Z</time>
      </trkpt>
      <trkpt lat="45.62703" lon="4.40551">
        <ele>534</ele>
        <time>2025-02-03T13:23:54Z</time>
      </trkpt>
      <trkpt lat="45.62704" lon="4.40558">
        <ele>534</ele>
        <time>2025-02-03T13:24:01Z</time>
      </trkpt>
      <trkpt lat="45.62709" lon="4.40597">
        <ele>534</ele>
        <time>2025-02-03T13:24:38Z</time>
      </trkpt>
      <trkpt lat="45.62707" lon="4.40607">
        <ele>535</ele>
        <time>2025-02-03T13:24:48Z</time>
      </trkpt>
      <trkpt lat="45.62706" lon="4.40608">
        <ele>535</ele>
        <time>2025-02-03T13:24:49Z</time>
      </trkpt>
      <trkpt lat="45.62702" lon="4.40619">
        <ele>536</ele>
        <time>2025-02-03T13:25:01Z</time>
      </trkpt>
      <trkpt lat="45.62677" lon="4.40646">
        <ele>538</ele>
        <time>2025-02-03T13:25:43Z</time>
      </trkpt>
      <trkpt lat="45.62661" lon="4.40668">
        <ele>539</ele>
        <time>2025-02-03T13:26:12Z</time>
      </trkpt>
      <trkpt lat="45.62635" lon="4.40707">
        <ele>541</ele>
        <time>2025-02-03T13:27:03Z</time>
      </trkpt>
      <trkpt lat="45.62616" lon="4.4074">
        <ele>542</ele>
        <time>2025-02-03T13:27:42Z</time>
      </trkpt>
      <trkpt lat="45.62608" lon="4.40759">
        <ele>542</ele>
        <time>2025-02-03T13:28:03Z</time>
      </trkpt>
      <trkpt lat="45.62603" lon="4.40777">
        <ele>543</ele>
        <time>2025-02-03T13:28:21Z</time>
      </trkpt>
      <trkpt lat="45.62595" lon="4.40808">
        <ele>544</ele>
        <time>2025-02-03T13:28:52Z</time>
      </trkpt>
      <trkpt lat="45.62575" lon="4.40905">
        <ele>548</ele>
        <time>2025-02-03T13:30:26Z</time>
      </trkpt>
      <trkpt lat="45.62568" lon="4.40926">
        <ele>549</ele>
        <time>2025-02-03T13:30:48Z</time>
      </trkpt>
      <trkpt lat="45.62564" lon="4.40945">
        <ele>550</ele>
        <time>2025-02-03T13:31:07Z</time>
      </trkpt>
      <trkpt lat="45.62557" lon="4.40967">
        <ele>551</ele>
        <time>2025-02-03T13:31:29Z</time>
      </trkpt>
      <trkpt lat="45.6255" lon="4.40987">
        <ele>552</ele>
        <time>2025-02-03T13:31:50Z</time>
      </trkpt>
      <trkpt lat="45.62544" lon="4.41007">
        <ele>553</ele>
        <time>2025-02-03T13:32:10Z</time>
      </trkpt>
      <trkpt lat="45.6254" lon="4.41018">
        <ele>553</ele>
        <time>2025-02-03T13:32:22Z</time>
      </trkpt>
      <trkpt lat="45.62535" lon="4.41031">
        <ele>554</ele>
        <time>2025-02-03T13:32:36Z</time>
      </trkpt>
      <trkpt lat="45.62532" lon="4.41051">
        <ele>554</ele>
        <time>2025-02-03T13:32:55Z</time>
      </trkpt>
      <trkpt lat="45.62524" lon="4.41079">
        <ele>555</ele>
        <time>2025-02-03T13:33:23Z</time>
      </trkpt>
      <trkpt lat="45.62517" lon="4.41098">
        <ele>556</ele>
        <time>2025-02-03T13:33:43Z</time>
      </trkpt>
      <trkpt lat="45.62504" lon="4.41128">
        <ele>556</ele>
        <time>2025-02-03T13:34:16Z</time>
      </trkpt>
      <trkpt lat="45.62486" lon="4.41164">
        <ele>557</ele>
        <time>2025-02-03T13:34:57Z</time>
      </trkpt>
      <trkpt lat="45.62484" lon="4.41168">
        <ele>557</ele>
        <time>2025-02-03T13:35:02Z</time>
      </trkpt>
      <trkpt lat="45.62478" lon="4.41191">
        <ele>556</ele>
        <time>2025-02-03T13:35:25Z</time>
      </trkpt>
      <trkpt lat="45.62475" lon="4.41213">
        <ele>556</ele>
        <time>2025-02-03T13:35:46Z</time>
      </trkpt>
      <trkpt lat="45.62473" lon="4.41213">
        <ele>556</ele>
        <time>2025-02-03T13:35:49Z</time>
      </trkpt>
      <trkpt lat="45.62467" lon="4.41213">
        <ele>556</ele>
        <time>2025-02-03T13:35:57Z</time>
      </trkpt>
      <trkpt lat="45.62436" lon="4.41265">
        <ele>555</ele>
        <time>2025-02-03T13:37:00Z</time>
      </trkpt>
      <trkpt lat="45.62417" lon="4.41308">
        <ele>553</ele>
        <time>2025-02-03T13:37:48Z</time>
      </trkpt>
      <trkpt lat="45.62409" lon="4.4134">
        <ele>553</ele>
        <time>2025-02-03T13:38:19Z</time>
      </trkpt>
      <trkpt lat="45.62405" lon="4.41369">
        <ele>552</ele>
        <time>2025-02-03T13:38:47Z</time>
      </trkpt>
      <trkpt lat="45.62395" lon="4.41396">
        <ele>551</ele>
        <time>2025-02-03T13:39:16Z</time>
      </trkpt>
      <trkpt lat="45.62383" lon="4.41419">
        <ele>551</ele>
        <time>2025-02-03T13:39:42Z</time>
      </trkpt>
      <trkpt lat="45.62363" lon="4.41441">
        <ele>549</ele>
        <time>2025-02-03T13:40:16Z</time>
      </trkpt>
      <trkpt lat="45.62355" lon="4.41448">
        <ele>548</ele>
        <time>2025-02-03T13:40:29Z</time>
      </trkpt>
      <trkpt lat="45.62348" lon="4.41456">
        <ele>548</ele>
        <time>2025-02-03T13:40:41Z</time>
      </trkpt>
      <trkpt lat="45.62343" lon="4.41488">
        <ele>545</ele>
        <time>2025-02-03T13:41:11Z</time>
      </trkpt>
      <trkpt lat="45.62333" lon="4.41509">
        <ele>544</ele>
        <time>2025-02-03T13:41:35Z</time>
      </trkpt>
      <trkpt lat="45.6233" lon="4.41521">
        <ele>543</ele>
        <time>2025-02-03T13:41:47Z</time>
      </trkpt>
      <trkpt lat="45.62325" lon="4.4153">
        <ele>543</ele>
        <time>2025-02-03T13:41:57Z</time>
      </trkpt>
      <trkpt lat="45.62318" lon="4.41539">
        <ele>542</ele>
        <time>2025-02-03T13:42:10Z</time>
      </trkpt>
      <trkpt lat="45.62298" lon="4.41552">
        <ele>540</ele>
        <time>2025-02-03T13:42:39Z</time>
      </trkpt>
      <trkpt lat="45.62296" lon="4.41555">
        <ele>540</ele>
        <time>2025-02-03T13:42:43Z</time>
      </trkpt>
      <trkpt lat="45.62295" lon="4.41558">
        <ele>539</ele>
        <time>2025-02-03T13:42:46Z</time>
      </trkpt>
      <trkpt lat="45.6229" lon="4.41566">
        <ele>539</ele>
        <time>2025-02-03T13:42:56Z</time>
      </trkpt>
      <trkpt lat="45.62283" lon="4.41588">
        <ele>537</ele>
        <time>2025-02-03T13:43:19Z</time>
      </trkpt>
      <trkpt lat="45.62278" lon="4.4161">
        <ele>535</ele>
        <time>2025-02-03T13:43:40Z</time>
      </trkpt>
      <trkpt lat="45.62269" lon="4.41635">
        <ele>533</ele>
        <time>2025-02-03T13:44:07Z</time>
      </trkpt>
      <trkpt lat="45.62263" lon="4.4169">
        <ele>531</ele>
        <time>2025-02-03T13:44:59Z</time>
      </trkpt>
      <trkpt lat="45.62248" lon="4.41766">
        <ele>529</ele>
        <time>2025-02-03T13:46:12Z</time>
      </trkpt>
      <trkpt lat="45.62248" lon="4.41768">
        <ele>529</ele>
        <time>2025-02-03T13:46:14Z</time>
      </trkpt>
      <trkpt lat="45.62248" lon="4.41766">
        <ele>529</ele>
        <time>2025-02-03T13:46:16Z</time>
      </trkpt>
      <trkpt lat="45.62235" lon="4.41767">
        <ele>527</ele>
        <time>2025-02-03T13:46:33Z</time>
      </trkpt>
      <trkpt lat="45.62224" lon="4.41773">
        <ele>526</ele>
        <time>2025-02-03T13:46:49Z</time>
      </trkpt>
      <trkpt lat="45.62177" lon="4.41812">
        <ele>521</ele>
        <time>2025-02-03T13:48:02Z</time>
      </trkpt>
      <trkpt lat="45.62168" lon="4.41818">
        <ele>520</ele>
        <time>2025-02-03T13:48:15Z</time>
      </trkpt>
      <trkpt lat="45.62121" lon="4.41851">
        <ele>516</ele>
        <time>2025-02-03T13:49:25Z</time>
      </trkpt>
      <trkpt lat="45.62107" lon="4.41857">
        <ele>514</ele>
        <time>2025-02-03T13:49:44Z</time>
      </trkpt>
      <trkpt lat="45.62098" lon="4.41861">
        <ele>513</ele>
        <time>2025-02-03T13:49:57Z</time>
      </trkpt>
      <trkpt lat="45.62067" lon="4.41785">
        <ele>511</ele>
        <time>2025-02-03T13:51:19Z</time>
      </trkpt>
      <trkpt lat="45.62068" lon="4.41775">
        <ele>512</ele>
        <time>2025-02-03T13:51:28Z</time>
      </trkpt>
      <trkpt lat="45.62068" lon="4.4176">
        <ele>512</ele>
        <time>2025-02-03T13:51:42Z</time>
      </trkpt>
      <trkpt lat="45.62065" lon="4.41745">
        <ele>513</ele>
        <time>2025-02-03T13:51:57Z</time>
      </trkpt>
      <trkpt lat="45.62062" lon="4.4174">
        <ele>513</ele>
        <time>2025-02-03T13:52:03Z</time>
      </trkpt>
      <trkpt lat="45.61995" lon="4.41726">
        <ele>507</ele>
        <time>2025-02-03T13:53:33Z</time>
      </trkpt>
      <trkpt lat="45.61956" lon="4.41708">
        <ele>506</ele>
        <time>2025-02-03T13:54:28Z</time>
      </trkpt>
      <trkpt lat="45.61871" lon="4.41694">
        <ele>499</ele>
        <time>2025-02-03T13:56:22Z</time>
      </trkpt>
      <trkpt lat="45.61813" lon="4.41658">
        <ele>493</ele>
        <time>2025-02-03T13:57:47Z</time>
      </trkpt>
      <trkpt lat="45.61809" lon="4.41676">
        <ele>491</ele>
        <time>2025-02-03T13:58:04Z</time>
      </trkpt>
      <trkpt lat="45.61805" lon="4.41749">
        <ele>488</ele>
        <time>2025-02-03T13:59:13Z</time>
      </trkpt>
      <trkpt lat="45.61813" lon="4.41777">
        <ele>488</ele>
        <time>2025-02-03T13:59:41Z</time>
      </trkpt>
      <trkpt lat="45.61811" lon="4.41798">
        <ele>486</ele>
        <time>2025-02-03T14:00:01Z</time>
      </trkpt>
      <trkpt lat="45.61779" lon="4.41867">
        <ele>478</ele>
        <time>2025-02-03T14:01:18Z</time>
      </trkpt>
      <trkpt lat="45.61768" lon="4.41912">
        <ele>473</ele>
        <time>2025-02-03T14:02:02Z</time>
      </trkpt>
      <trkpt lat="45.6176" lon="4.41958">
        <ele>471</ele>
        <time>2025-02-03T14:02:47Z</time>
      </trkpt>
      <trkpt lat="45.61745" lon="4.41981">
        <ele>469</ele>
        <time>2025-02-03T14:03:16Z</time>
      </trkpt>
      <trkpt lat="45.61744" lon="4.41983">
        <ele>469</ele>
        <time>2025-02-03T14:03:18Z</time>
      </trkpt>
      <trkpt lat="45.61742" lon="4.42001">
        <ele>469</ele>
        <time>2025-02-03T14:03:35Z</time>
      </trkpt>
      <trkpt lat="45.61745" lon="4.42021">
        <ele>469</ele>
        <time>2025-02-03T14:03:54Z</time>
      </trkpt>
      <trkpt lat="45.61752" lon="4.4204">
        <ele>469</ele>
        <time>2025-02-03T14:04:15Z</time>
      </trkpt>
      <trkpt lat="45.61769" lon="4.42091">
        <ele>468</ele>
        <time>2025-02-03T14:05:07Z</time>
      </trkpt>
    </trkseg>
  </trk>
</gpx>